sensor_id;sensor_type;location;lat;lon;timestamp;pressure;altitude;pressure_sealevel;temperature;humidity
40612;BME280;26317;44.894;20.286;2023-03-22T00:01:14;100616.53;;;11.25;64.27
40612;BME280;26317;44.894;20.286;2023-03-22T00:04:05;100634.22;;;11.36;64.56
40612;BME280;26317;44.894;20.286;2023-03-22T00:06:45;100622.41;;;11.37;64.70
40612;BME280;26317;44.894;20.286;2023-03-22T00:09:33;100621.59;;;11.37;64.69
40612;BME280;26317;44.894;20.286;2023-03-22T00:12:15;100616.22;;;11.37;64.69
40612;BME280;26317;44.894;20.286;2023-03-22T00:14:53;100615.19;;;11.28;64.93
40612;BME280;26317;44.894;20.286;2023-03-22T00:17:33;100624.31;;;11.32;65.03
40612;BME280;26317;44.894;20.286;2023-03-22T00:20:08;100581.44;;;11.01;65.17
40612;BME280;26317;44.894;20.286;2023-03-22T00:22:49;100592.16;;;11.12;65.32
40612;BME280;26317;44.894;20.286;2023-03-22T00:25:24;100614.66;;;11.26;65.61
40612;BME280;26317;44.894;20.286;2023-03-22T00:28:15;100614.13;;;11.24;66.20
40612;BME280;26317;44.894;20.286;2023-03-22T00:30:56;100612.53;;;11.23;66.25
40612;BME280;26317;44.894;20.286;2023-03-22T00:33:40;100602.06;;;11.21;66.55
40612;BME280;26317;44.894;20.286;2023-03-22T00:36:25;100601.50;;;11.24;66.72
40612;BME280;26317;44.894;20.286;2023-03-22T00:39:03;100601.25;;;11.26;66.75
40612;BME280;26317;44.894;20.286;2023-03-22T00:41:53;100581.41;;;11.17;66.80
40612;BME280;26317;44.894;20.286;2023-03-22T00:44:39;100596.44;;;11.23;67.26
40612;BME280;26317;44.894;20.286;2023-03-22T00:47:26;100603.94;;;11.21;68.04
40612;BME280;26317;44.894;20.286;2023-03-22T00:50:10;100611.72;;;11.22;68.53
40612;BME280;26317;44.894;20.286;2023-03-22T00:53:00;100602.06;;;11.21;68.81
40612;BME280;26317;44.894;20.286;2023-03-22T00:55:47;100598.31;;;11.17;69.38
40612;BME280;26317;44.894;20.286;2023-03-22T00:58:35;100587.88;;;11.05;69.97
40612;BME280;26317;44.894;20.286;2023-03-22T01:01:14;100596.44;;;11.13;70.26
40612;BME280;26317;44.894;20.286;2023-03-22T01:03:58;100579.81;;;11.05;70.39
40612;BME280;26317;44.894;20.286;2023-03-22T01:06:52;100600.19;;;11.17;70.54
40612;BME280;26317;44.894;20.286;2023-03-22T01:09:50;100584.63;;;11.14;71.03
40612;BME280;26317;44.894;20.286;2023-03-22T01:12:40;100583.53;;;11.15;71.16
40612;BME280;26317;44.894;20.286;2023-03-22T01:15:13;100597.50;;;11.12;71.91
40612;BME280;26317;44.894;20.286;2023-03-22T01:18:05;100595.38;;;11.08;72.83
40612;BME280;26317;44.894;20.286;2023-03-22T01:23:30;100590.03;;;11.03;72.91
40612;BME280;26317;44.894;20.286;2023-03-22T01:26:14;100591.38;;;11.01;73.17
40612;BME280;26317;44.894;20.286;2023-03-22T01:28:47;100583.59;;;10.99;73.12
40612;BME280;26317;44.894;20.286;2023-03-22T01:31:31;100576.91;;;10.97;72.93
40612;BME280;26317;44.894;20.286;2023-03-22T01:34:21;100584.41;;;11.00;73.13
40612;BME280;26317;44.894;20.286;2023-03-22T01:37:19;100580.09;;;10.99;73.11
40612;BME280;26317;44.894;20.286;2023-03-22T01:40:14;100578.22;;;10.99;73.23
40612;BME280;26317;44.894;20.286;2023-03-22T01:42:58;100576.34;;;10.95;73.01
40612;BME280;26317;44.894;20.286;2023-03-22T01:45:53;100551.94;;;10.81;73.15
40612;BME280;26317;44.894;20.286;2023-03-22T01:48:41;100570.72;;;10.91;73.07
40612;BME280;26317;44.894;20.286;2023-03-22T01:51:42;100573.66;;;10.90;73.00
40612;BME280;26317;44.894;20.286;2023-03-22T01:54:31;100577.72;;;10.92;72.81
40612;BME280;26317;44.894;20.286;2023-03-22T01:57:31;100576.09;;;10.91;72.37
40612;BME280;26317;44.894;20.286;2023-03-22T02:00:19;100569.16;;;10.85;72.77
40612;BME280;26317;44.894;20.286;2023-03-22T02:03:21;100567.28;;;10.81;72.80
40612;BME280;26317;44.894;20.286;2023-03-22T02:06:16;100575.28;;;10.86;72.85
40612;BME280;26317;44.894;20.286;2023-03-22T02:09:14;100584.69;;;10.83;72.61
40612;BME280;26317;44.894;20.286;2023-03-22T02:12:04;100574.78;;;10.79;72.39
40612;BME280;26317;44.894;20.286;2023-03-22T02:14:59;100567.53;;;10.69;72.77
40612;BME280;26317;44.894;20.286;2023-03-22T02:18:26;100580.69;;;10.71;72.71
40612;BME280;26317;44.894;20.286;2023-03-22T02:21:55;100589.00;;;10.69;73.29
40612;BME280;26317;44.894;20.286;2023-03-22T02:25:09;100580.16;;;10.64;73.55
40612;BME280;26317;44.894;20.286;2023-03-22T02:28:18;100577.47;;;10.58;73.48
40612;BME280;26317;44.894;20.286;2023-03-22T02:31:21;100548.53;;;10.35;73.91
40612;BME280;26317;44.894;20.286;2023-03-22T02:34:31;100585.81;;;10.52;73.64
40612;BME280;26317;44.894;20.286;2023-03-22T02:40:40;100581.50;;;10.46;73.30
40612;BME280;26317;44.894;20.286;2023-03-22T02:43:33;100594.66;;;10.42;73.29
40612;BME280;26317;44.894;20.286;2023-03-22T02:46:28;100582.84;;;10.38;72.74
40612;BME280;26317;44.894;20.286;2023-03-22T02:49:42;100562.19;;;10.24;73.07
40612;BME280;26317;44.894;20.286;2023-03-22T02:52:38;100589.81;;;10.29;73.24
40612;BME280;26317;44.894;20.286;2023-03-22T02:55:27;100574.00;;;10.18;73.59
40612;BME280;26317;44.894;20.286;2023-03-22T02:58:14;100593.84;;;10.22;73.49
40612;BME280;26317;44.894;20.286;2023-03-22T03:00:55;100590.88;;;10.18;73.14
40612;BME280;26317;44.894;20.286;2023-03-22T03:03:38;100600.81;;;10.18;73.47
40612;BME280;26317;44.894;20.286;2023-03-22T03:06:25;100610.97;;;10.15;73.18
40612;BME280;26317;44.894;20.286;2023-03-22T03:09:20;100574.47;;;9.89;73.03
40612;BME280;26317;44.894;20.286;2023-03-22T03:12:19;100605.03;;;10.08;72.57
40612;BME280;26317;44.894;20.286;2023-03-22T03:14:58;100603.97;;;10.04;72.49
40612;BME280;26317;44.894;20.286;2023-03-22T03:17:53;100605.56;;;10.05;72.79
40612;BME280;26317;44.894;20.286;2023-03-22T03:20:41;100586.78;;;9.95;72.39
40612;BME280;26317;44.894;20.286;2023-03-22T03:23:36;100599.69;;;10.08;72.17
40612;BME280;26317;44.894;20.286;2023-03-22T03:26:20;100588.94;;;10.03;72.19
40612;BME280;26317;44.894;20.286;2023-03-22T03:29:17;100605.88;;;10.14;71.72
40612;BME280;26317;44.894;20.286;2023-03-22T03:32:14;100612.28;;;10.13;71.71
40612;BME280;26317;44.894;20.286;2023-03-22T03:35:00;100622.50;;;10.16;71.86
40612;BME280;26317;44.894;20.286;2023-03-22T03:37:47;100591.88;;;10.02;72.49
40612;BME280;26317;44.894;20.286;2023-03-22T03:40:37;100618.44;;;10.13;73.74
40612;BME280;26317;44.894;20.286;2023-03-22T03:43:17;100614.41;;;10.11;73.88
40612;BME280;26317;44.894;20.286;2023-03-22T03:46:18;100627.28;;;10.09;72.86
40612;BME280;26317;44.894;20.286;2023-03-22T03:49:03;100595.31;;;9.82;72.85
40612;BME280;26317;44.894;20.286;2023-03-22T03:51:52;100627.25;;;9.99;73.03
40612;BME280;26317;44.894;20.286;2023-03-22T03:54:36;100615.19;;;9.91;74.13
40612;BME280;26317;44.894;20.286;2023-03-22T03:57:23;100620.50;;;9.81;74.94
40612;BME280;26317;44.894;20.286;2023-03-22T04:00:17;100626.66;;;9.72;75.30
40612;BME280;26317;44.894;20.286;2023-03-22T04:03:25;100613.75;;;9.63;75.63
40612;BME280;26317;44.894;20.286;2023-03-22T04:06:22;100630.91;;;9.67;75.49
40612;BME280;26317;44.894;20.286;2023-03-22T04:09:09;100593.59;;;9.46;75.91
40612;BME280;26317;44.894;20.286;2023-03-22T04:12:04;100634.66;;;9.66;76.19
40612;BME280;26317;44.894;20.286;2023-03-22T04:14:57;100633.56;;;9.62;76.24
40612;BME280;26317;44.894;20.286;2023-03-22T04:17:36;100627.94;;;9.59;76.91
40612;BME280;26317;44.894;20.286;2023-03-22T04:20:20;100625.72;;;9.46;77.18
40612;BME280;26317;44.894;20.286;2023-03-22T04:23:10;100610.38;;;9.26;77.15
40612;BME280;26317;44.894;20.286;2023-03-22T04:25:47;100608.97;;;9.18;77.14
40612;BME280;26317;44.894;20.286;2023-03-22T04:28:45;100636.88;;;9.28;76.78
40612;BME280;26317;44.894;20.286;2023-03-22T04:31:27;100632.59;;;9.32;76.80
40612;BME280;26317;44.894;20.286;2023-03-22T04:34:31;100632.59;;;9.32;77.56
40612;BME280;26317;44.894;20.286;2023-03-22T04:37:11;100630.13;;;9.20;77.89
40612;BME280;26317;44.894;20.286;2023-03-22T04:39:57;100605.19;;;9.04;78.32
40612;BME280;26317;44.894;20.286;2023-03-22T04:42:50;100608.59;;;8.95;78.77
40612;BME280;26317;44.894;20.286;2023-03-22T04:45:46;100630.78;;;8.95;78.89
40612;BME280;26317;44.894;20.286;2023-03-22T04:48:26;100621.84;;;8.80;78.98
40612;BME280;26317;44.894;20.286;2023-03-22T04:51:19;100643.50;;;8.78;79.40
40612;BME280;26317;44.894;20.286;2023-03-22T04:54:22;100642.13;;;8.70;79.62
40612;BME280;26317;44.894;20.286;2023-03-22T04:57:16;100639.09;;;8.62;79.77
40612;BME280;26317;44.894;20.286;2023-03-22T05:00:10;100641.66;;;8.52;80.17
40612;BME280;26317;44.894;20.286;2023-03-22T05:02:55;100615.25;;;8.28;81.02
40612;BME280;26317;44.894;20.286;2023-03-22T05:05:39;100644.28;;;8.42;81.89
40612;BME280;26317;44.894;20.286;2023-03-22T05:08:21;100637.34;;;8.46;82.21
40612;BME280;26317;44.894;20.286;2023-03-22T05:11:11;100627.72;;;8.45;81.74
40612;BME280;26317;44.894;20.286;2023-03-22T05:14:11;100656.75;;;8.63;81.59
40612;BME280;26317;44.894;20.286;2023-03-22T05:16:54;100654.13;;;8.68;80.90
40612;BME280;26317;44.894;20.286;2023-03-22T05:19:43;100662.78;;;8.80;80.07
40612;BME280;26317;44.894;20.286;2023-03-22T05:22:16;100663.91;;;8.89;79.42
40612;BME280;26317;44.894;20.286;2023-03-22T05:25:03;100666.66;;;8.99;79.01
40612;BME280;26317;44.894;20.286;2023-03-22T05:27:51;100662.66;;;9.02;78.73
40612;BME280;26317;44.894;20.286;2023-03-22T05:30:48;100672.09;;;9.09;78.69
40612;BME280;26317;44.894;20.286;2023-03-22T05:33:46;100670.81;;;9.17;78.13
40612;BME280;26317;44.894;20.286;2023-03-22T05:36:29;100689.06;;;9.25;78.00
40612;BME280;26317;44.894;20.286;2023-03-22T05:39:26;100675.44;;;9.27;77.71
40612;BME280;26317;44.894;20.286;2023-03-22T05:42:01;100692.63;;;9.41;78.11
40612;BME280;26317;44.894;20.286;2023-03-22T05:44:48;100647.00;;;9.20;78.51
40612;BME280;26317;44.894;20.286;2023-03-22T05:47:35;100695.41;;;9.61;78.74
40612;BME280;26317;44.894;20.286;2023-03-22T05:50:23;100689.81;;;9.62;78.16
40612;BME280;26317;44.894;20.286;2023-03-22T05:53:02;100693.84;;;9.70;78.05
40612;BME280;26317;44.894;20.286;2023-03-22T05:55:58;100705.16;;;9.82;77.69
40612;BME280;26317;44.894;20.286;2023-03-22T05:58:43;100691.22;;;9.85;77.38
40612;BME280;26317;44.894;20.286;2023-03-22T06:01:33;100712.47;;;10.02;77.88
40612;BME280;26317;44.894;20.286;2023-03-22T06:04:33;100712.78;;;10.05;77.78
40612;BME280;26317;44.894;20.286;2023-03-22T06:07:23;100713.31;;;10.12;78.04
40612;BME280;26317;44.894;20.286;2023-03-22T06:10:15;100715.53;;;10.21;78.52
40612;BME280;26317;44.894;20.286;2023-03-22T06:12:58;100703.41;;;10.13;78.93
40612;BME280;26317;44.894;20.286;2023-03-22T06:15:49;100707.50;;;10.26;79.17
40612;BME280;26317;44.894;20.286;2023-03-22T06:18:38;100714.47;;;10.32;79.59
40612;BME280;26317;44.894;20.286;2023-03-22T06:21:20;100716.94;;;10.43;79.82
40612;BME280;26317;44.894;20.286;2023-03-22T06:24:31;100726.06;;;10.47;80.68
40612;BME280;26317;44.894;20.286;2023-03-22T06:27:15;100712.91;;;10.46;81.02
40612;BME280;26317;44.894;20.286;2023-03-22T06:30:02;100722.06;;;10.60;81.23
40612;BME280;26317;44.894;20.286;2023-03-22T06:33:13;100734.16;;;10.73;80.79
40612;BME280;26317;44.894;20.286;2023-03-22T06:36:28;100721.00;;;10.71;80.39
40612;BME280;26317;44.894;20.286;2023-03-22T06:42:26;100736.03;;;10.87;80.74
40612;BME280;26317;44.894;20.286;2023-03-22T06:47:58;100740.31;;;11.03;81.06
40612;BME280;26317;44.894;20.286;2023-03-22T06:51:14;100732.53;;;11.12;80.33
40612;BME280;26317;44.894;20.286;2023-03-22T06:54:14;100743.00;;;11.29;80.60
40612;BME280;26317;44.894;20.286;2023-03-22T06:56:55;100748.63;;;11.42;79.59
40612;BME280;26317;44.894;20.286;2023-03-22T06:59:55;100729.81;;;11.42;77.28
40612;BME280;26317;44.894;20.286;2023-03-22T07:02:33;100745.09;;;11.62;76.10
40612;BME280;26317;44.894;20.286;2023-03-22T07:05:39;100722.53;;;11.63;75.98
40612;BME280;26317;44.894;20.286;2023-03-22T07:08:36;100756.34;;;11.89;75.01
40612;BME280;26317;44.894;20.286;2023-03-22T07:11:27;100760.59;;;12.01;73.35
40612;BME280;26317;44.894;20.286;2023-03-22T07:14:18;100760.56;;;12.11;72.43
40612;BME280;26317;44.894;20.286;2023-03-22T07:17:05;100758.94;;;12.15;72.53
40612;BME280;26317;44.894;20.286;2023-03-22T07:19:51;100763.22;;;12.16;71.81
40612;BME280;26317;44.894;20.286;2023-03-22T07:22:45;100770.44;;;12.30;71.54
40612;BME280;26317;44.894;20.286;2023-03-22T07:25:39;100777.63;;;12.45;70.78
40612;BME280;26317;44.894;20.286;2023-03-22T07:28:53;100783.47;;;12.57;68.99
40612;BME280;26317;44.894;20.286;2023-03-22T07:31:35;100788.25;;;12.65;70.21
40612;BME280;26317;44.894;20.286;2023-03-22T07:34:20;100790.91;;;12.75;69.22
40612;BME280;26317;44.894;20.286;2023-03-22T07:37:10;100785.75;;;12.84;68.33
40612;BME280;26317;44.894;20.286;2023-03-22T07:39:48;100791.38;;;12.87;69.05
40612;BME280;26317;44.894;20.286;2023-03-22T07:42:31;100791.56;;;13.01;69.24
40612;BME280;26317;44.894;20.286;2023-03-22T07:45:46;100783.22;;;12.98;68.17
40612;BME280;26317;44.894;20.286;2023-03-22T07:48:57;100782.34;;;13.12;68.36
40612;BME280;26317;44.894;20.286;2023-03-22T07:52:10;100786.31;;;13.20;67.24
40612;BME280;26317;44.894;20.286;2023-03-22T07:54:51;100774.44;;;13.21;67.51
40612;BME280;26317;44.894;20.286;2023-03-22T07:57:28;100793.13;;;13.41;65.20
40612;BME280;26317;44.894;20.286;2023-03-22T08:00:11;100786.63;;;13.47;64.37
40612;BME280;26317;44.894;20.286;2023-03-22T08:03:26;100793.94;;;13.42;65.14
40612;BME280;26317;44.894;20.286;2023-03-22T08:06:28;100798.50;;;13.46;63.93
40612;BME280;26317;44.894;20.286;2023-03-22T08:09:12;100797.88;;;13.54;64.11
40612;BME280;26317;44.894;20.286;2023-03-22T08:11:46;100799.63;;;13.69;64.51
40612;BME280;26317;44.894;20.286;2023-03-22T08:17:22;100797.84;;;13.83;64.30
40612;BME280;26317;44.894;20.286;2023-03-22T08:20:14;100794.31;;;13.88;63.41
40612;BME280;26317;44.894;20.286;2023-03-22T08:23:11;100794.25;;;13.93;63.01
40612;BME280;26317;44.894;20.286;2023-03-22T08:26:23;100794.44;;;14.01;62.68
40612;BME280;26317;44.894;20.286;2023-03-22T08:29:12;100800.22;;;14.13;62.40
40612;BME280;26317;44.894;20.286;2023-03-22T08:32:13;100791.28;;;14.18;61.72
40612;BME280;26317;44.894;20.286;2023-03-22T08:34:54;100803.03;;;14.27;61.96
40612;BME280;26317;44.894;20.286;2023-03-22T08:37:38;100803.47;;;14.39;63.12
40612;BME280;26317;44.894;20.286;2023-03-22T08:40:15;100800.28;;;14.56;61.28
40612;BME280;26317;44.894;20.286;2023-03-22T08:42:55;100807.72;;;14.64;60.37
40612;BME280;26317;44.894;20.286;2023-03-22T08:45:40;100799.03;;;14.67;61.28
40612;BME280;26317;44.894;20.286;2023-03-22T08:48:30;100802.16;;;14.74;61.07
40612;BME280;26317;44.894;20.286;2023-03-22T08:51:25;100790.22;;;14.80;60.94
40612;BME280;26317;44.894;20.286;2023-03-22T08:54:42;100805.69;;;14.93;60.28
40612;BME280;26317;44.894;20.286;2023-03-22T08:57:49;100801.50;;;15.01;60.64
40612;BME280;26317;44.894;20.286;2023-03-22T09:00:47;100804.13;;;15.06;59.56
40612;BME280;26317;44.894;20.286;2023-03-22T09:03:45;100800.84;;;15.09;60.17
40612;BME280;26317;44.894;20.286;2023-03-22T09:06:29;100814.03;;;15.29;58.97
40612;BME280;26317;44.894;20.286;2023-03-22T09:09:09;100786.00;;;15.25;59.33
40612;BME280;26317;44.894;20.286;2023-03-22T09:11:59;100810.97;;;15.49;59.31
40612;BME280;26317;44.894;20.286;2023-03-22T09:14:45;100806.84;;;15.57;57.85
40612;BME280;26317;44.894;20.286;2023-03-22T09:17:32;100792.53;;;15.56;58.52
40612;BME280;26317;44.894;20.286;2023-03-22T09:20:12;100774.81;;;15.45;58.61
40612;BME280;26317;44.894;20.286;2023-03-22T09:22:55;100797.75;;;15.67;57.76
40612;BME280;26317;44.894;20.286;2023-03-22T09:25:30;100808.41;;;15.90;57.20
40612;BME280;26317;44.894;20.286;2023-03-22T09:28:24;100803.50;;;15.92;58.55
40612;BME280;26317;44.894;20.286;2023-03-22T09:31:09;100790.16;;;15.96;57.75
40612;BME280;26317;44.894;20.286;2023-03-22T09:34:01;100810.19;;;15.95;57.09
40612;BME280;26317;44.894;20.286;2023-03-22T09:36:40;100798.56;;;16.08;57.50
40612;BME280;26317;44.894;20.286;2023-03-22T09:39:26;100796.38;;;16.24;56.92
40612;BME280;26317;44.894;20.286;2023-03-22T09:42:09;100788.66;;;16.31;55.23
40612;BME280;26317;44.894;20.286;2023-03-22T09:44:59;100792.06;;;16.36;54.87
40612;BME280;26317;44.894;20.286;2023-03-22T09:47:46;100786.13;;;16.48;55.10
40612;BME280;26317;44.894;20.286;2023-03-22T09:50:34;100792.03;;;16.64;53.68
40612;BME280;26317;44.894;20.286;2023-03-22T09:53:17;100784.75;;;16.86;53.15
40612;BME280;26317;44.894;20.286;2023-03-22T09:55:58;100781.38;;;16.81;53.36
40612;BME280;26317;44.894;20.286;2023-03-22T09:58:57;100785.81;;;16.99;51.62
40612;BME280;26317;44.894;20.286;2023-03-22T10:02:03;100777.19;;;16.97;51.64
40612;BME280;26317;44.894;20.286;2023-03-22T10:04:59;100729.94;;;16.67;51.54
40612;BME280;26317;44.894;20.286;2023-03-22T10:10:40;100769.94;;;17.06;51.76
40612;BME280;26317;44.894;20.286;2023-03-22T10:13:22;100770.59;;;17.12;52.12
40612;BME280;26317;44.894;20.286;2023-03-22T10:16:06;100770.16;;;17.18;49.08
40612;BME280;26317;44.894;20.286;2023-03-22T10:19:01;100764.75;;;17.18;49.79
40612;BME280;26317;44.894;20.286;2023-03-22T10:21:41;100761.59;;;17.25;49.55
40612;BME280;26317;44.894;20.286;2023-03-22T10:24:24;100762.78;;;17.32;49.81
40612;BME280;26317;44.894;20.286;2023-03-22T10:27:19;100761.69;;;17.42;49.39
40612;BME280;26317;44.894;20.286;2023-03-22T10:30:15;100745.25;;;17.38;49.72
40612;BME280;26317;44.894;20.286;2023-03-22T10:33:15;100753.25;;;17.66;49.94
40612;BME280;26317;44.894;20.286;2023-03-22T10:35:56;100754.09;;;17.83;48.82
40612;BME280;26317;44.894;20.286;2023-03-22T10:38:44;100746.09;;;17.70;48.92
40612;BME280;26317;44.894;20.286;2023-03-22T10:41:25;100728.38;;;17.72;49.50
40612;BME280;26317;44.894;20.286;2023-03-22T10:44:12;100742.22;;;18.02;48.88
40612;BME280;26317;44.894;20.286;2023-03-22T10:47:28;100741.56;;;18.05;46.01
40612;BME280;26317;44.894;20.286;2023-03-22T10:50:11;100716.78;;;17.89;45.66
40612;BME280;26317;44.894;20.286;2023-03-22T10:53:01;100720.66;;;18.05;45.40
40612;BME280;26317;44.894;20.286;2023-03-22T10:55:42;100741.34;;;18.41;47.27
40612;BME280;26317;44.894;20.286;2023-03-22T10:58:26;100730.50;;;18.49;43.99
40612;BME280;26317;44.894;20.286;2023-03-22T11:01:26;100725.72;;;18.55;44.19
40612;BME280;26317;44.894;20.286;2023-03-22T11:04:19;100710.31;;;18.50;44.20
40612;BME280;26317;44.894;20.286;2023-03-22T11:06:54;100726.50;;;18.81;43.38
40612;BME280;26317;44.894;20.286;2023-03-22T11:09:36;100723.63;;;18.86;42.62
40612;BME280;26317;44.894;20.286;2023-03-22T11:12:15;100717.53;;;19.06;43.80
40612;BME280;26317;44.894;20.286;2023-03-22T11:14:58;100725.84;;;19.01;42.40
40612;BME280;26317;44.894;20.286;2023-03-22T11:17:37;100707.31;;;19.03;41.06
40612;BME280;26317;44.894;20.286;2023-03-22T11:20:26;100700.56;;;19.09;41.41
40612;BME280;26317;44.894;20.286;2023-03-22T11:23:14;100709.34;;;19.15;41.60
40612;BME280;26317;44.894;20.286;2023-03-22T11:26:11;100690.06;;;18.82;42.29
40612;BME280;26317;44.894;20.286;2023-03-22T11:29:03;100700.94;;;18.82;41.35
40612;BME280;26317;44.894;20.286;2023-03-22T11:31:54;100675.66;;;18.38;41.67
40612;BME280;26317;44.894;20.286;2023-03-22T11:34:37;100704.59;;;18.43;42.12
40612;BME280;26317;44.894;20.286;2023-03-22T11:37:25;100675.78;;;17.99;42.77
40612;BME280;26317;44.894;20.286;2023-03-22T11:40:17;100697.97;;;18.01;41.84
40612;BME280;26317;44.894;20.286;2023-03-22T11:43:14;100692.06;;;18.08;41.30
40612;BME280;26317;44.894;20.286;2023-03-22T11:46:11;100691.75;;;18.09;42.58
40612;BME280;26317;44.894;20.286;2023-03-22T11:48:55;100684.44;;;18.27;42.33
40612;BME280;26317;44.894;20.286;2023-03-22T11:51:32;100689.41;;;18.51;42.68
40612;BME280;26317;44.894;20.286;2023-03-22T11:54:20;100678.88;;;18.75;42.24
40612;BME280;26317;44.894;20.286;2023-03-22T11:57:19;100679.50;;;18.80;41.93
40612;BME280;26317;44.894;20.286;2023-03-22T12:00:13;100674.72;;;18.52;41.14
40612;BME280;26317;44.894;20.286;2023-03-22T12:03:01;100672.47;;;18.54;40.58
40612;BME280;26317;44.894;20.286;2023-03-22T12:05:42;100675.19;;;18.45;41.27
40612;BME280;26317;44.894;20.286;2023-03-22T12:08:36;100665.75;;;18.25;42.09
40612;BME280;26317;44.894;20.286;2023-03-22T12:11:24;100668.59;;;18.20;41.59
40612;BME280;26317;44.894;20.286;2023-03-22T12:14:28;100669.56;;;18.33;41.85
40612;BME280;26317;44.894;20.286;2023-03-22T12:17:10;100673.59;;;18.44;42.98
40612;BME280;26317;44.894;20.286;2023-03-22T12:20:18;100678.56;;;18.59;41.94
40612;BME280;26317;44.894;20.286;2023-03-22T12:23:13;100669.59;;;18.76;41.36
40612;BME280;26317;44.894;20.286;2023-03-22T12:25:52;100664.31;;;18.88;40.31
40612;BME280;26317;44.894;20.286;2023-03-22T12:28:50;100668.94;;;18.79;39.30
40612;BME280;26317;44.894;20.286;2023-03-22T12:31:37;100661.94;;;18.69;38.96
40612;BME280;26317;44.894;20.286;2023-03-22T12:34:22;100666.56;;;18.69;39.38
40612;BME280;26317;44.894;20.286;2023-03-22T12:37:02;100665.47;;;18.70;39.66
40612;BME280;26317;44.894;20.286;2023-03-22T12:39:51;100650.28;;;18.69;40.30
40612;BME280;26317;44.894;20.286;2023-03-22T12:42:44;100655.28;;;19.13;39.15
40612;BME280;26317;44.894;20.286;2023-03-22T12:45:29;100662.41;;;19.44;37.93
40612;BME280;26317;44.894;20.286;2023-03-22T12:48:12;100614.78;;;19.20;38.02
40612;BME280;26317;44.894;20.286;2023-03-22T12:50:59;100641.91;;;19.38;38.19
40612;BME280;26317;44.894;20.286;2023-03-22T12:53:54;100651.72;;;19.30;37.86
40612;BME280;26317;44.894;20.286;2023-03-22T12:56:43;100652.56;;;19.13;37.68
40612;BME280;26317;44.894;20.286;2023-03-22T12:59:23;100651.31;;;19.02;37.64
40612;BME280;26317;44.894;20.286;2023-03-22T13:02:12;100638.72;;;18.89;37.43
40612;BME280;26317;44.894;20.286;2023-03-22T13:04:57;100636.94;;;18.93;38.53
40612;BME280;26317;44.894;20.286;2023-03-22T13:07:50;100624.03;;;18.90;37.42
40612;BME280;26317;44.894;20.286;2023-03-22T13:10:56;100631.88;;;19.29;38.04
40612;BME280;26317;44.894;20.286;2023-03-22T13:13:49;100636.72;;;19.62;36.48
40612;BME280;26317;44.894;20.286;2023-03-22T13:16:54;100633.63;;;19.72;35.88
40612;BME280;26317;44.894;20.286;2023-03-22T13:19:37;100628.09;;;19.60;35.62
40612;BME280;26317;44.894;20.286;2023-03-22T13:22:26;100622.72;;;19.72;35.82
40612;BME280;26317;44.894;20.286;2023-03-22T13:25:32;100606.81;;;19.83;34.49
40612;BME280;26317;44.894;20.286;2023-03-22T13:28:25;100625.16;;;19.94;34.40
40612;BME280;26317;44.894;20.286;2023-03-22T13:31:32;100620.28;;;20.00;34.70
40612;BME280;26317;44.894;20.286;2023-03-22T13:34:18;100618.03;;;20.02;34.51
40612;BME280;26317;44.894;20.286;2023-03-22T13:37:17;100618.94;;;20.35;33.99
40612;BME280;26317;44.894;20.286;2023-03-22T13:39:59;100612.28;;;20.45;33.13
40612;BME280;26317;44.894;20.286;2023-03-22T13:42:46;100613.44;;;20.56;32.26
40612;BME280;26317;44.894;20.286;2023-03-22T13:45:37;100608.88;;;20.48;34.12
40612;BME280;26317;44.894;20.286;2023-03-22T13:48:40;100605.19;;;20.64;35.50
40612;BME280;26317;44.894;20.286;2023-03-22T13:51:26;100601.50;;;20.81;35.19
40612;BME280;26317;44.894;20.286;2023-03-22T13:54:15;100594.31;;;20.77;33.82
40612;BME280;26317;44.894;20.286;2023-03-22T13:57:03;100600.53;;;20.65;34.91
40612;BME280;26317;44.894;20.286;2023-03-22T14:00:17;100597.19;;;20.47;34.24
40612;BME280;26317;44.894;20.286;2023-03-22T14:02:56;100597.84;;;20.24;35.19
40612;BME280;26317;44.894;20.286;2023-03-22T14:05:44;100603.38;;;19.94;35.61
40612;BME280;26317;44.894;20.286;2023-03-22T14:08:27;100613.16;;;19.66;36.63
40612;BME280;26317;44.894;20.286;2023-03-22T14:14:03;100605.91;;;19.49;37.09
40612;BME280;26317;44.894;20.286;2023-03-22T14:16:48;100600.28;;;19.46;36.67
40612;BME280;26317;44.894;20.286;2023-03-22T14:19:31;100597.03;;;19.61;36.74
40612;BME280;26317;44.894;20.286;2023-03-22T14:22:13;100581.56;;;19.53;35.79
40612;BME280;26317;44.894;20.286;2023-03-22T14:24:48;100577.50;;;19.59;35.01
40612;BME280;26317;44.894;20.286;2023-03-22T14:27:33;100596.44;;;19.76;34.49
40612;BME280;26317;44.894;20.286;2023-03-22T14:30:33;100591.28;;;19.54;35.65
40612;BME280;26317;44.894;20.286;2023-03-22T14:33:12;100556.69;;;19.25;35.92
40612;BME280;26317;44.894;20.286;2023-03-22T14:35:59;100583.41;;;19.32;34.97
40612;BME280;26317;44.894;20.286;2023-03-22T14:38:39;100584.81;;;19.29;35.70
40612;BME280;26317;44.894;20.286;2023-03-22T14:41:18;100579.50;;;19.12;36.07
40612;BME280;26317;44.894;20.286;2023-03-22T14:43:59;100577.47;;;19.29;36.57
40612;BME280;26317;44.894;20.286;2023-03-22T14:46:43;100577.97;;;19.32;35.88
40612;BME280;26317;44.894;20.286;2023-03-22T14:49:24;100583.66;;;19.39;35.93
40612;BME280;26317;44.894;20.286;2023-03-22T14:52:03;100584.63;;;19.43;35.92
40612;BME280;26317;44.894;20.286;2023-03-22T14:54:51;100587.63;;;19.50;35.64
40612;BME280;26317;44.894;20.286;2023-03-22T14:57:48;100587.22;;;19.68;35.46